Time;durP1;ratioP1;P1;durP2;ratioP2;P2;SDS_P1;SDS_P2;PMS_P1;PMS_P2;Temp;Humidity;BMP_temperature;BMP_pressure;BME280_temperature;BME280_humidity;BME280_pressure;Samples;Min_cycle;Max_cycle;Signal;HPM_P1;HPM_P2
2021/07/31 00:01:47;;;;;;;10.88;7.87;;;;;;;29.85;44.18;98982.75;4500433;31;34175;-62
2021/07/31 00:04:16;;;;;;;12.80;7.85;;;;;;;29.86;44.31;98986.31;4500390;31;33565;-61
2021/07/31 00:06:43;;;;;;;10.18;7.32;;;;;;;29.86;44.29;98997.31;4500373;31;34296;-67
2021/07/31 00:09:11;;;;;;;12.27;8.00;;;;;;;29.86;44.37;98991.81;4498910;31;33686;-67
2021/07/31 00:11:38;;;;;;;10.63;8.60;;;;;;;29.85;43.70;98993.75;4500400;31;33845;-67
2021/07/31 00:14:06;;;;;;;22.65;8.82;;;;;;;29.85;43.44;98993.75;4485458;31;32945;-66
2021/07/31 00:16:33;;;;;;;11.80;9.27;;;;;;;29.82;43.27;99002.56;4500380;31;34080;-68
2021/07/31 00:19:01;;;;;;;13.02;8.60;;;;;;;29.80;43.25;98999.28;4499455;31;34065;-67
2021/07/31 00:21:29;;;;;;;10.98;8.05;;;;;;;29.80;43.13;99006.69;4498867;31;34015;-67
2021/07/31 00:23:56;;;;;;;11.20;8.55;;;;;;;29.78;43.10;99009.72;4485454;31;33517;-67
2021/07/31 00:26:24;;;;;;;16.87;9.05;;;;;;;29.78;43.10;99008.91;4499094;31;32721;-68
2021/07/31 00:28:57;;;;;;;14.02;9.05;;;;;;;29.76;43.05;98994.66;4500290;31;34234;-67
2021/07/31 00:31:27;;;;;;;14.65;9.07;;;;;;;29.74;43.04;98994.91;4486337;31;32363;-67
2021/07/31 00:33:55;;;;;;;12.80;9.45;;;;;;;29.73;42.96;98987.78;4499121;31;33654;-67
2021/07/31 00:36:24;;;;;;;11.40;9.00;;;;;;;29.70;42.97;98975.44;4500520;31;34039;-67
2021/07/31 00:38:52;;;;;;;11.05;9.57;;;;;;;29.70;42.97;98974.59;4498862;31;34122;-67
2021/07/31 00:41:19;;;;;;;12.13;9.02;;;;;;;29.70;42.93;98974.59;4498893;31;33780;-68
2021/07/31 00:43:46;;;;;;;10.00;8.95;;;;;;;29.68;43.00;98972.16;4498922;31;33068;-67
2021/07/31 00:46:14;;;;;;;12.00;9.15;;;;;;;29.67;43.00;98977.94;4500084;31;34103;-69
2021/07/31 00:48:42;;;;;;;11.40;9.25;;;;;;;29.65;42.96;98975.47;4498802;31;34855;-67
2021/07/31 00:51:10;;;;;;;12.45;9.57;;;;;;;29.64;42.99;98976.59;4486143;31;34487;-68
2021/07/31 00:53:38;;;;;;;11.45;8.98;;;;;;;29.65;43.01;98977.41;4500151;31;34354;-67
2021/07/31 00:56:05;;;;;;;12.63;9.07;;;;;;;29.63;43.05;98977.69;4499184;31;33191;-67
2021/07/31 00:58:33;;;;;;;10.88;9.00;;;;;;;29.62;43.17;98967.00;4498649;31;34418;-67
2021/07/31 01:01:01;;;;;;;11.20;8.40;;;;;;;29.61;43.33;98965.34;4486176;31;34498;-67
2021/07/31 01:03:29;;;;;;;10.65;8.90;;;;;;;29.59;43.24;98960.12;4500007;31;33371;-67
2021/07/31 01:06:00;;;;;;;12.57;8.80;;;;;;;29.59;43.18;98962.88;4499915;31;33627;-67
2021/07/31 01:08:28;;;;;;;12.40;9.07;;;;;;;29.59;43.13;98959.31;4498932;31;33584;-67
2021/07/31 01:10:57;;;;;;;10.40;8.73;;;;;;;29.57;43.30;98948.63;4500180;31;34572;-67
2021/07/31 01:13:25;;;;;;;12.27;9.63;;;;;;;29.58;43.12;98950.25;4498561;31;33317;-67
2021/07/31 01:16:02;;;;;;;13.55;9.85;;;;;;;29.57;43.00;98954.13;4485769;31;33875;-66
2021/07/31 01:18:30;;;;;;;15.40;9.43;;;;;;;29.56;42.95;98941.47;4498665;31;34678;-67
2021/07/31 01:20:58;;;;;;;12.70;9.35;;;;;;;29.56;43.04;98943.38;4498735;31;34032;-67
2021/07/31 01:23:25;;;;;;;14.00;9.50;;;;;;;29.56;43.12;98937.88;4498807;31;34235;-67
2021/07/31 01:25:54;;;;;;;10.32;8.70;;;;;;;29.55;43.10;98934.31;4498712;31;34924;-67
2021/07/31 01:28:23;;;;;;;11.07;9.20;;;;;;;29.54;43.25;98935.41;4498624;31;34455;-67
2021/07/31 01:30:50;;;;;;;12.85;9.93;;;;;;;29.54;43.22;98932.66;4484941;31;33771;-68
2021/07/31 01:33:18;;;;;;;11.20;9.10;;;;;;;29.54;43.23;98934.59;4485404;31;33621;-67
2021/07/31 01:35:46;;;;;;;9.85;8.85;;;;;;;29.53;43.28;98938.44;4499919;31;34811;-67
2021/07/31 01:38:13;;;;;;;14.05;9.27;;;;;;;29.53;43.21;98933.78;4487245;31;34870;-67
2021/07/31 01:40:41;;;;;;;12.27;8.85;;;;;;;29.52;43.40;98934.03;4479727;32;85171;-68
2021/07/31 01:43:09;;;;;;;10.73;9.32;;;;;;;29.53;43.42;98938.44;4483771;32;33012;-67
2021/07/31 01:45:37;;;;;;;11.12;9.93;;;;;;;29.51;43.36;98932.41;4482504;32;32847;-67
2021/07/31 01:48:05;;;;;;;11.88;8.80;;;;;;;29.50;43.48;98937.09;4456310;32;32797;-67
2021/07/31 01:50:34;;;;;;;11.32;9.10;;;;;;;29.50;43.56;98926.09;4483634;32;33121;-68
2021/07/31 01:53:02;;;;;;;11.18;9.23;;;;;;;29.51;43.55;98940.66;4482736;32;34168;-67
2021/07/31 01:55:29;;;;;;;12.00;9.50;;;;;;;29.49;43.51;98933.53;4483435;32;33666;-67
2021/07/31 01:57:57;;;;;;;12.32;9.82;;;;;;;29.50;43.48;98926.09;4483679;32;34863;-67
2021/07/31 02:00:27;;;;;;;11.77;9.85;;;;;;;29.49;43.46;98924.47;4482465;32;34486;-67
2021/07/31 02:02:56;;;;;;;10.85;9.23;;;;;;;29.49;43.59;98924.47;4483684;32;33452;-69
2021/07/31 02:05:24;;;;;;;12.52;8.95;;;;;;;29.48;43.42;98917.34;4469364;32;32489;-67
2021/07/31 02:07:52;;;;;;;12.50;8.93;;;;;;;29.48;43.36;98920.06;4482016;32;33014;-67
2021/07/31 02:10:20;;;;;;;13.02;9.57;;;;;;;29.48;43.39;98920.06;4482055;32;34358;-68
2021/07/31 02:12:47;;;;;;;13.00;8.93;;;;;;;29.48;43.36;98931.06;4483384;32;33174;-67
2021/07/31 02:15:17;;;;;;;12.80;9.43;;;;;;;29.47;43.28;98929.41;4483659;32;34097;-67
2021/07/31 02:17:45;;;;;;;14.63;9.23;;;;;;;29.47;43.18;98918.41;4483442;32;33785;-68
2021/07/31 02:20:13;;;;;;;15.00;9.77;;;;;;;29.48;43.17;98909.09;4483729;32;33392;-67
2021/07/31 02:22:42;;;;;;;12.90;9.75;;;;;;;29.46;43.21;98911.28;4469498;32;34260;-68
2021/07/31 02:25:12;;;;;;;13.57;9.85;;;;;;;29.45;43.32;98920.66;4483592;31;33373;-67
2021/07/31 02:27:43;;;;;;;13.80;10.23;;;;;;;29.45;43.38;98915.16;4483489;32;33346;-67
2021/07/31 02:30:11;;;;;;;13.73;9.68;;;;;;;29.45;43.29;98926.97;4468939;32;33998;-67
2021/07/31 02:32:39;;;;;;;13.70;9.67;;;;;;;29.44;43.30;98925.31;4483486;32;33514;-67
2021/07/31 02:35:09;;;;;;;11.77;9.70;;;;;;;29.46;43.32;98936.03;4483406;32;34867;-67
2021/07/31 02:37:40;;;;;;;15.40;10.30;;;;;;;29.44;43.38;98938.25;4483151;32;34174;-67
2021/07/31 02:40:08;;;;;;;13.82;9.73;;;;;;;29.44;43.46;98962.97;4483143;32;33936;-67
2021/07/31 02:42:35;;;;;;;12.93;9.82;;;;;;;29.45;43.45;98981.09;4483608;32;33480;-66
2021/07/31 02:45:05;;;;;;;11.73;9.65;;;;;;;29.43;43.46;98978.66;4485387;32;33930;-68
2021/07/31 02:47:32;;;;;;;12.30;9.63;;;;;;;29.43;43.56;98980.59;4471245;32;33699;-67
2021/07/31 02:50:00;;;;;;;14.23;9.32;;;;;;;29.43;43.58;98988.84;4483998;32;33885;-67
2021/07/31 02:52:30;;;;;;;11.20;9.20;;;;;;;29.42;43.56;98998.97;4485655;32;33221;-67
2021/07/31 02:54:58;;;;;;;15.38;9.80;;;;;;;29.43;43.58;99002.56;4485104;32;34009;-67
2021/07/31 02:57:25;;;;;;;15.85;10.57;;;;;;;29.42;43.83;98995.41;4485423;32;33670;-67
2021/07/31 02:59:53;;;;;;;11.15;8.93;;;;;;;29.41;43.87;98983.59;4484331;32;33792;-67
2021/07/31 03:02:22;;;;;;;12.03;9.23;;;;;;;29.42;43.66;98984.41;4485474;32;33593;-67
2021/07/31 03:04:50;;;;;;;11.88;8.63;;;;;;;29.42;43.65;98982.50;4497300;31;34175;-67
2021/07/31 03:07:19;;;;;;;12.88;8.18;;;;;;;29.41;43.64;98985.53;4486963;31;32624;-67
2021/07/31 03:09:47;;;;;;;14.35;8.57;;;;;;;29.43;43.56;98988.84;4473334;31;33620;-67
2021/07/31 03:12:15;;;;;;;13.90;8.80;;;;;;;29.42;43.63;98978.91;4499902;31;34200;-67
2021/07/31 03:15:11;;;;;;;12.55;8.27;;;;;;;29.42;43.68;98978.91;4500847;31;34779;-68
2021/07/31 03:17:39;;;;;;;10.73;8.32;;;;;;;29.44;43.67;99004.22;4499578;31;34546;-67
2021/07/31 03:20:07;;;;;;;12.85;8.38;;;;;;;29.40;43.75;99036.94;4501173;31;34354;-67
2021/07/31 03:22:35;;;;;;;19.58;8.20;;;;;;;29.40;43.88;99025.13;4486366;31;31877;-68
2021/07/31 03:25:04;;;;;;;10.43;8.07;;;;;;;29.39;44.20;99007.81;4499631;31;34606;-68
2021/07/31 03:27:31;;;;;;;11.27;8.20;;;;;;;29.39;44.34;99012.50;4486873;31;33645;-67
2021/07/31 03:30:02;;;;;;;14.70;7.78;;;;;;;29.38;44.61;99022.66;4500864;31;33888;-67
2021/07/31 03:32:32;;;;;;;14.48;7.60;;;;;;;29.37;44.91;99004.50;4498940;31;32169;-68
2021/07/31 03:35:00;;;;;;;12.02;7.78;;;;;;;29.38;45.22;99011.66;4499427;31;34561;-67
2021/07/31 03:37:32;;;;;;;13.77;7.82;;;;;;;29.35;45.42;99006.75;4499736;31;33723;-67
2021/07/31 03:40:02;;;;;;;12.63;7.55;;;;;;;29.36;45.45;99004.81;4500415;31;34274;-67
2021/07/31 03:42:30;;;;;;;11.47;7.90;;;;;;;29.34;45.81;99010.59;4500866;31;34180;-67
2021/07/31 03:44:57;;;;;;;9.05;7.22;;;;;;;29.36;45.77;99029.53;4500794;31;33933;-68
2021/07/31 03:47:25;;;;;;;11.77;7.70;;;;;;;29.36;45.66;99024.03;4500830;31;33994;-67
2021/07/31 03:49:53;;;;;;;10.00;6.97;;;;;;;29.34;45.85;98999.59;4499418;31;34062;-66
2021/07/31 03:52:22;;;;;;;10.68;7.10;;;;;;;29.35;45.59;98987.50;4500515;31;33372;-67
2021/07/31 03:54:50;;;;;;;9.55;7.05;;;;;;;29.36;45.87;98997.38;4499386;31;34227;-67
2021/07/31 03:57:17;;;;;;;10.98;7.07;;;;;;;29.35;45.56;98986.69;4500952;31;34094;-67
2021/07/31 03:59:46;;;;;;;11.45;7.65;;;;;;;29.35;45.35;98982.00;4499444;31;33875;-68
2021/07/31 04:02:15;;;;;;;10.35;7.85;;;;;;;29.35;45.53;98972.94;4500930;31;33502;-68
2021/07/31 04:04:43;;;;;;;10.40;7.32;;;;;;;29.35;45.50;98968.25;4500474;31;34932;-67
2021/07/31 04:07:13;;;;;;;;;;;;;;;29.35;45.54;98971.00;4499876;31;34499;-67
2021/07/31 04:09:53;;;;;;;12.75;7.70;;;;;;;29.49;45.77;98973.94;4499492;31;33490;-68
2021/07/31 04:12:28;;;;;;;10.32;6.82;;;;;;;29.39;45.66;98966.59;4500747;31;33029;-67
2021/07/31 04:15:00;;;;;;;9.98;7.50;;;;;;;29.37;45.75;98977.03;4487137;31;33461;-67
2021/07/31 04:17:28;;;;;;;11.18;7.30;;;;;;;29.37;46.16;98982.53;4499064;31;33879;-67
2021/07/31 04:19:56;;;;;;;8.32;6.95;;;;;;;29.36;46.37;98980.88;4486652;31;34767;-67
2021/07/31 04:22:24;;;;;;;11.65;7.37;;;;;;;29.36;46.11;98991.88;4500708;31;34370;-67
2021/07/31 04:24:52;;;;;;;9.77;6.78;;;;;;;29.37;46.68;99006.44;4500614;31;33899;-68
2021/07/31 04:27:21;;;;;;;9.20;7.18;;;;;;;29.36;46.62;99010.31;4499439;31;34535;-68
2021/07/31 04:29:48;;;;;;;12.23;7.72;;;;;;;29.36;46.86;99013.06;4500516;31;33778;-67
2021/07/31 04:32:16;;;;;;;10.35;7.35;;;;;;;29.36;46.52;99013.88;4500522;31;33547;-67
2021/07/31 04:34:43;;;;;;;8.15;6.37;;;;;;;29.35;47.08;99025.97;4499184;31;33668;-67
2021/07/31 04:37:11;;;;;;;7.93;6.20;;;;;;;29.36;46.24;99021.28;4500248;31;34827;-67
2021/07/31 04:39:39;;;;;;;11.60;6.15;;;;;;;29.35;46.18;99020.47;4499068;31;34512;-68
2021/07/31 04:42:06;;;;;;;7.87;5.57;;;;;;;29.34;46.16;99029.84;4500215;31;34194;-67
2021/07/31 04:44:36;;;;;;;6.85;5.35;;;;;;;29.34;46.09;99027.09;4500639;31;34682;-67
2021/07/31 04:47:03;;;;;;;6.90;5.40;;;;;;;29.34;45.90;99021.59;4500153;31;33674;-68
2021/07/31 04:49:35;;;;;;;9.10;5.60;;;;;;;29.34;45.99;99026.25;4500571;31;34058;-67
2021/07/31 04:52:07;;;;;;;8.23;5.22;;;;;;;29.33;45.73;99016.34;4498956;31;33193;-67
2021/07/31 04:54:41;;;;;;;9.80;5.40;;;;;;;29.33;45.58;99013.59;4500236;31;35175;-67
2021/07/31 04:57:11;;;;;;;7.32;5.15;;;;;;;29.33;45.72;99028.19;4498451;31;32958;-67
2021/07/31 04:59:39;;;;;;;6.65;4.87;;;;;;;29.34;45.44;99031.75;4498808;31;34561;-67
2021/07/31 05:02:06;;;;;;;7.82;4.90;;;;;;;29.32;45.46;99020.22;4500182;31;34122;-67
2021/07/31 05:04:34;;;;;;;6.37;4.47;;;;;;;29.32;45.53;99025.72;4500010;31;33917;-67
2021/07/31 05:07:02;;;;;;;8.70;5.00;;;;;;;29.32;45.42;99031.22;4499200;31;34120;-68
2021/07/31 05:09:29;;;;;;;7.18;4.90;;;;;;;29.32;45.43;99036.69;4500114;31;33791;-67
2021/07/31 05:11:57;;;;;;;6.85;4.93;;;;;;;29.30;45.50;99028.75;4500104;31;33439;-67
2021/07/31 05:14:26;;;;;;;10.52;5.25;;;;;;;29.30;45.70;99019.69;4499857;31;33985;-67
2021/07/31 05:16:53;;;;;;;7.10;5.30;;;;;;;29.30;45.63;99031.50;4498762;31;34820;-67
2021/07/31 05:19:21;;;;;;;7.50;4.90;;;;;;;29.31;45.43;99032.31;4500068;31;33772;-67
2021/07/31 05:21:49;;;;;;;7.43;5.00;;;;;;;29.29;45.48;99043.59;4499853;31;34172;-67
2021/07/31 05:24:16;;;;;;;6.93;4.68;;;;;;;29.28;45.39;99030.94;4499032;31;34653;-67
2021/07/31 05:26:44;;;;;;;6.85;4.18;;;;;;;29.28;45.44;99024.63;4500151;31;34846;-67
2021/07/31 05:29:11;;;;;;;7.95;4.75;;;;;;;29.29;45.43;99026.31;4499949;31;34487;-68
2021/07/31 05:31:40;;;;;;;8.88;5.20;;;;;;;29.29;45.52;99020.81;4499699;31;34264;-68
2021/07/31 05:34:07;;;;;;;8.90;4.80;;;;;;;29.28;45.68;99028.19;4498578;31;33552;-67
2021/07/31 05:36:37;;;;;;;9.18;4.65;;;;;;;29.28;45.73;99013.66;4499677;31;34033;-68
2021/07/31 05:39:04;;;;;;;7.12;4.57;;;;;;;29.26;45.68;99026.84;4498419;31;34501;-68
2021/07/31 05:41:32;;;;;;;9.13;4.75;;;;;;;29.27;45.64;99020.25;4499638;31;32527;-67
2021/07/31 05:44:00;;;;;;;7.97;4.60;;;;;;;29.27;45.71;99025.75;4499523;31;33594;-67
2021/07/31 05:46:27;;;;;;;7.80;4.50;;;;;;;29.27;45.68;99029.31;4498482;31;34567;-67
2021/07/31 05:48:56;;;;;;;7.18;4.62;;;;;;;29.26;45.66;99024.09;4499744;31;33925;-68
2021/07/31 05:51:23;;;;;;;7.12;4.78;;;;;;;29.27;45.75;99026.56;4499408;31;34306;-66
2021/07/31 05:53:51;;;;;;;7.15;5.03;;;;;;;29.27;45.83;99031.25;4499579;31;34814;-67
2021/07/31 05:56:18;;;;;;;7.05;4.82;;;;;;;29.27;46.24;99025.75;4497906;31;33518;-67
2021/07/31 05:58:46;;;;;;;7.45;4.62;;;;;;;29.27;46.19;99023.81;4498281;31;34671;-67
2021/07/31 06:01:13;;;;;;;7.93;5.40;;;;;;;29.27;46.18;99012.00;4498297;31;33352;-67
2021/07/31 06:03:42;;;;;;;9.85;4.82;;;;;;;29.25;46.15;99006.81;4499393;31;33964;-67
2021/07/31 06:06:09;;;;;;;6.07;4.53;;;;;;;29.27;45.88;99014.75;4499472;31;34630;-67
2021/07/31 06:08:37;;;;;;;8.30;4.37;;;;;;;29.27;45.92;99010.06;4499393;31;34558;-67
2021/07/31 06:11:05;;;;;;;11.27;5.10;;;;;;;29.27;46.01;99006.50;4499209;31;34713;-68
2021/07/31 06:13:33;;;;;;;7.87;4.78;;;;;;;29.29;45.96;99009.81;4485180;31;34746;-68
2021/07/31 06:16:00;;;;;;;9.60;5.22;;;;;;;29.30;45.97;99012.28;4498091;31;34756;-67
2021/07/31 06:18:28;;;;;;;7.97;4.97;;;;;;;29.30;46.12;99017.75;4498131;31;33774;-63
2021/07/31 06:20:55;;;;;;;9.45;4.87;;;;;;;29.30;46.34;99012.28;4491549;31;34371;-63
2021/07/31 06:23:23;;;;;;;10.75;4.95;;;;;;;29.31;47.01;99018.59;4490052;31;35172;-63
2021/07/31 06:25:51;;;;;;;12.30;5.28;;;;;;;29.31;47.00;99015.84;4501132;31;34075;-63
2021/07/31 06:28:18;;;;;;;13.13;4.97;;;;;;;29.32;47.19;99009.22;4501380;31;33827;-63
2021/07/31 06:30:45;;;;;;;13.48;5.57;;;;;;;29.33;47.21;99008.13;4501202;31;33485;-63
2021/07/31 06:33:13;;;;;;;11.12;5.47;;;;;;;29.34;47.23;99009.78;4499879;31;32624;-63
2021/07/31 06:35:41;;;;;;;8.48;5.25;;;;;;;29.34;47.19;99012.53;4501124;31;34096;-63
2021/07/31 06:38:08;;;;;;;9.27;5.53;;;;;;;29.35;47.12;99011.41;4489846;31;33752;-63
2021/07/31 06:40:36;;;;;;;8.07;5.30;;;;;;;29.35;47.04;99005.91;4483832;31;33220;-65
2021/07/31 06:43:03;;;;;;;10.90;5.30;;;;;;;29.35;46.98;99004.00;4487515;31;32553;-66
2021/07/31 06:45:32;;;;;;;7.65;4.82;;;;;;;29.35;46.87;99001.25;4484785;31;35025;-65
2021/07/31 06:48:00;;;;;;;10.45;5.32;;;;;;;29.35;46.79;99005.91;4485194;31;34703;-64
2021/07/31 06:50:28;;;;;;;6.43;4.70;;;;;;;29.36;46.77;99013.88;4498324;31;33773;-63
2021/07/31 06:52:55;;;;;;;9.48;4.90;;;;;;;29.37;46.78;99010.00;4493228;31;34037;-65
2021/07/31 06:55:23;;;;;;;9.75;5.57;;;;;;;29.38;46.71;99010.84;4484648;31;35089;-65
2021/07/31 06:57:50;;;;;;;6.97;4.78;;;;;;;29.37;46.69;99009.19;4485293;31;33851;-64
2021/07/31 07:00:18;;;;;;;7.90;4.90;;;;;;;29.38;46.58;99010.84;4484550;31;33361;-64
2021/07/31 07:02:46;;;;;;;10.07;5.10;;;;;;;29.37;46.56;99018.25;4495123;31;33509;-63
2021/07/31 07:05:14;;;;;;;9.00;4.78;;;;;;;29.37;46.45;99021.00;4489854;31;33771;-63
2021/07/31 07:07:41;;;;;;;8.00;4.80;;;;;;;29.37;46.35;99022.94;4501129;31;33794;-63
2021/07/31 07:10:09;;;;;;;9.00;4.65;;;;;;;29.39;46.26;99023.47;4500637;31;33694;-63
2021/07/31 07:12:37;;;;;;;7.82;5.00;;;;;;;29.38;46.14;99022.66;4500865;31;34108;-63
2021/07/31 07:15:05;;;;;;;8.60;4.55;;;;;;;29.40;46.20;99031.44;4500765;31;34763;-63
2021/07/31 07:17:33;;;;;;;8.10;5.45;;;;;;;29.41;46.15;99032.25;4500627;31;33808;-64
2021/07/31 07:20:01;;;;;;;7.72;5.15;;;;;;;29.42;46.14;99031.13;4500782;31;33470;-63
2021/07/31 07:22:28;;;;;;;8.10;5.22;;;;;;;29.43;46.17;99033.63;4500705;31;34687;-63
2021/07/31 07:24:56;;;;;;;5.97;4.45;;;;;;;29.44;46.09;99032.50;4500635;31;34390;-63
2021/07/31 07:27:23;;;;;;;8.68;4.95;;;;;;;29.45;46.07;99027.81;4500692;31;33999;-63
2021/07/31 07:29:51;;;;;;;9.20;4.85;;;;;;;29.46;46.10;99029.47;4500354;31;32928;-64
2021/07/31 07:32:18;;;;;;;7.12;5.43;;;;;;;29.47;46.15;99020.09;4500459;31;34656;-63
2021/07/31 07:34:46;;;;;;;8.55;4.70;;;;;;;29.48;46.14;99030.00;4500747;31;34058;-64
2021/07/31 07:37:13;;;;;;;6.75;4.57;;;;;;;29.49;46.02;99020.66;4500653;31;33884;-63
2021/07/31 07:39:41;;;;;;;6.80;4.45;;;;;;;29.51;46.11;99031.34;4499076;31;33000;-63
2021/07/31 07:42:09;;;;;;;9.15;5.05;;;;;;;29.49;46.12;99040.72;4500599;31;34202;-63
2021/07/31 07:44:36;;;;;;;7.55;4.70;;;;;;;29.51;46.17;99037.66;4500534;31;33979;-65
2021/07/31 07:47:04;;;;;;;7.62;4.82;;;;;;;29.53;46.13;99029.16;4500340;31;34602;-64
2021/07/31 07:49:31;;;;;;;7.05;4.87;;;;;;;29.52;46.22;99039.34;4499448;31;33210;-63
2021/07/31 07:51:59;;;;;;;8.82;5.28;;;;;;;29.52;46.25;99028.34;4500429;31;33795;-64
2021/07/31 07:54:29;;;;;;;7.43;4.62;;;;;;;29.54;46.17;99030.78;4500328;31;34227;-63
2021/07/31 07:56:57;;;;;;;6.85;4.50;;;;;;;29.54;46.19;99025.31;4500495;31;33896;-62
2021/07/31 07:59:24;;;;;;;5.40;4.15;;;;;;;29.55;46.14;99030.53;4500380;31;33632;-63
2021/07/31 08:01:52;;;;;;;7.18;4.87;;;;;;;29.56;46.18;99037.66;4500401;31;33990;-62
2021/07/31 08:04:20;;;;;;;8.30;4.87;;;;;;;29.57;46.21;99046.75;4500492;31;33665;-63
2021/07/31 08:06:47;;;;;;;7.37;4.87;;;;;;;29.56;46.22;99062.41;4500571;31;33835;-62
2021/07/31 08:09:16;;;;;;;8.25;4.60;;;;;;;29.56;46.25;99067.91;4500670;31;33492;-63
2021/07/31 08:11:43;;;;;;;9.05;4.95;;;;;;;29.57;46.27;99066.00;4500383;31;33168;-63
2021/07/31 08:14:12;;;;;;;7.87;4.43;;;;;;;29.55;46.24;99063.53;4500288;31;34349;-63
2021/07/31 08:16:40;;;;;;;9.32;4.53;;;;;;;29.57;46.22;99074.25;4500345;31;33857;-62
2021/07/31 08:19:10;;;;;;;6.82;4.50;;;;;;;29.57;46.19;99071.50;4500420;31;33454;-63
2021/07/31 08:21:38;;;;;;;6.82;5.15;;;;;;;29.57;46.17;99074.25;4500138;31;33821;-63
2021/07/31 08:24:06;;;;;;;6.65;4.35;;;;;;;29.56;46.12;99070.66;4500372;31;34221;-63
2021/07/31 08:26:33;;;;;;;6.53;4.50;;;;;;;29.56;46.09;99058.84;4499721;31;33636;-63
2021/07/31 08:29:01;;;;;;;7.45;4.25;;;;;;;29.56;46.04;99056.91;4499972;31;33574;-63
2021/07/31 08:31:28;;;;;;;6.30;4.70;;;;;;;29.56;45.99;99051.41;4500563;31;34639;-63
2021/07/31 08:33:56;;;;;;;7.05;4.80;;;;;;;29.56;45.94;99056.91;4499996;31;34213;-63
2021/07/31 08:36:24;;;;;;;5.62;4.50;;;;;;;29.55;45.88;99049.78;4500156;31;33136;-63
2021/07/31 08:38:51;;;;;;;6.12;4.32;;;;;;;29.56;45.85;99048.66;4500449;31;33346;-63
2021/07/31 08:41:21;;;;;;;6.97;4.82;;;;;;;29.56;45.81;99042.34;4499122;31;33975;-63
2021/07/31 08:43:48;;;;;;;7.10;4.30;;;;;;;29.55;45.79;99038.78;4500247;31;34151;-63
2021/07/31 08:46:16;;;;;;;6.18;4.22;;;;;;;29.56;45.74;99045.09;4499056;31;34589;-63
2021/07/31 08:48:44;;;;;;;5.55;4.00;;;;;;;29.56;45.70;99045.09;4500348;31;33477;-63
2021/07/31 08:51:12;;;;;;;7.07;4.43;;;;;;;29.55;45.68;99036.03;4499240;31;34120;-63
2021/07/31 08:53:39;;;;;;;7.68;4.62;;;;;;;29.55;45.67;99047.03;4485918;31;34029;-63
2021/07/31 08:56:08;;;;;;;5.80;4.30;;;;;;;29.58;45.64;99042.91;4500244;31;34093;-63
2021/07/31 08:58:42;;;;;;;7.25;4.40;;;;;;;29.56;45.63;99045.09;4500022;31;34749;-63
2021/07/31 09:01:13;;;;;;;6.35;4.47;;;;;;;29.58;45.67;99035.47;4500259;31;33803;-63
2021/07/31 09:03:48;;;;;;;9.55;4.50;;;;;;;29.58;45.71;99040.97;4500060;31;34895;-63
2021/07/31 09:06:26;;;;;;;5.72;4.55;;;;;;;29.58;45.77;99032.72;4500214;31;33529;-63
2021/07/31 09:08:54;;;;;;;7.28;4.18;;;;;;;29.59;45.74;99042.59;4500202;31;33346;-63
2021/07/31 09:11:22;;;;;;;6.87;4.50;;;;;;;29.59;45.77;99050.03;4498745;31;33658;-64
2021/07/31 09:14:10;;;;;;;6.75;4.03;;;;;;;29.60;45.81;99044.22;4497129;31;33681;-63
2021/07/31 09:16:38;;;;;;;6.70;3.97;;;;;;;29.62;45.81;99049.47;4499223;31;33532;-63
2021/07/31 09:19:07;;;;;;;5.80;3.70;;;;;;;29.61;45.79;99048.66;4499676;31;33633;-62
2021/07/31 09:21:34;;;;;;;5.50;3.80;;;;;;;29.61;45.82;99045.91;4499457;31;34691;-63
2021/07/31 09:24:02;;;;;;;6.87;4.22;;;;;;;29.63;45.83;99042.84;4499315;31;33984;-63
2021/07/31 09:26:36;;;;;;;5.80;4.20;;;;;;;29.64;45.78;99039.81;4499157;31;34601;-63
2021/07/31 09:29:04;;;;;;;8.32;4.10;;;;;;;29.64;45.81;99039.81;4499486;31;33471;-63
2021/07/31 09:31:32;;;;;;;5.53;3.92;;;;;;;29.65;45.79;99046.94;4499910;31;33793;-63
2021/07/31 09:34:02;;;;;;;5.25;3.85;;;;;;;29.66;45.74;99050.53;4494608;31;34882;-63
2021/07/31 09:36:39;;;;;;;;;;;;;;;29.68;45.76;99053.81;4484190;32;33704;-63
2021/07/31 09:39:10;;;;;;;7.78;4.32;;;;;;;29.81;45.46;99052.34;4483952;32;34278;-63
2021/07/31 09:41:39;;;;;;;8.77;4.00;;;;;;;29.71;45.66;99048.56;4483690;32;34026;-63
2021/07/31 09:44:16;;;;;;;5.53;3.90;;;;;;;29.69;45.75;99037.03;4483915;32;35045;-63
2021/07/31 09:46:50;;;;;;;5.72;3.62;;;;;;;29.71;45.75;99034.00;4482569;32;34418;-63
2021/07/31 09:49:22;;;;;;;6.55;3.97;;;;;;;29.71;45.76;99039.50;4483858;32;33565;-63
2021/07/31 09:51:51;;;;;;;7.47;4.10;;;;;;;29.71;45.75;99034.00;4483223;32;33891;-63
2021/07/31 09:54:21;;;;;;;6.32;4.53;;;;;;;29.71;45.75;99040.31;4483667;32;34580;-63
2021/07/31 09:56:50;;;;;;;5.93;4.05;;;;;;;29.73;45.64;99035.34;4483769;32;34721;-63
2021/07/31 09:59:19;;;;;;;6.35;4.12;;;;;;;29.73;45.69;99040.03;4483599;32;33305;-63
2021/07/31 10:01:50;;;;;;;5.07;3.60;;;;;;;29.74;45.70;99033.41;4483233;32;34042;-63
2021/07/31 10:04:18;;;;;;;6.05;3.65;;;;;;;29.75;45.69;99040.53;4481846;32;34062;-63
2021/07/31 10:06:45;;;;;;;5.50;3.97;;;;;;;29.76;45.70;99041.41;4487087;31;34634;-63
2021/07/31 10:09:13;;;;;;;5.12;3.92;;;;;;;29.76;45.70;99033.97;4499107;31;34429;-63
2021/07/31 10:11:41;;;;;;;5.53;4.07;;;;;;;29.77;45.70;99045.78;4499008;31;33542;-63
2021/07/31 10:14:08;;;;;;;6.25;3.83;;;;;;;29.77;45.69;99038.34;4498766;31;33987;-63
2021/07/31 10:16:37;;;;;;;5.03;3.50;;;;;;;29.78;45.65;99047.41;4498887;31;34856;-64
2021/07/31 10:19:09;;;;;;;6.15;3.90;;;;;;;29.79;45.65;99046.31;4484862;31;33528;-71
2021/07/31 10:21:42;;;;;;;5.50;3.70;;;;;;;29.79;45.69;99047.13;4491782;31;33932;-70
2021/07/31 10:24:10;;;;;;;6.75;4.10;;;;;;;29.81;45.75;99047.66;4483257;32;34040;-63
2021/07/31 10:26:38;;;;;;;5.82;4.30;;;;;;;29.82;45.84;99045.72;4482169;32;33856;-63
2021/07/31 10:29:27;;;;;;;6.07;4.35;;;;;;;29.82;45.83;99048.47;4483350;32;33435;-63
2021/07/31 10:31:55;;;;;;;7.87;5.00;;;;;;;29.86;45.72;99049.56;4483269;32;34113;-63
2021/07/31 10:35:01;;;;;;;6.62;4.30;;;;;;;29.82;45.74;99043.81;4483104;32;34273;-63
2021/07/31 10:37:32;;;;;;;6.47;4.40;;;;;;;29.86;45.53;99039.38;4449525;32;34115;-63
2021/07/31 10:40:02;;;;;;;5.50;3.80;;;;;;;29.81;45.62;99035.84;4478037;31;34066;-67
2021/07/31 10:42:51;;;;;;;6.53;4.00;;;;;;;29.81;45.53;99050.41;4483094;32;34674;-63
2021/07/31 10:45:23;;;;;;;6.35;3.87;;;;;;;29.85;45.42;99046.00;4483107;32;35300;-63
2021/07/31 10:47:54;;;;;;;6.43;3.92;;;;;;;29.81;45.54;99049.59;4483054;32;33996;-63
2021/07/31 10:50:24;;;;;;;7.50;4.18;;;;;;;29.79;45.58;99046.31;4481896;32;33415;-63
2021/07/31 10:53:06;;;;;;;6.07;4.00;;;;;;;29.79;45.55;99060.03;4483747;31;33985;-63
2021/07/31 10:55:35;;;;;;;6.70;4.35;;;;;;;29.81;45.53;99046.84;4496260;31;34976;-63
2021/07/31 10:58:15;;;;;;;6.22;3.97;;;;;;;29.79;45.55;99049.88;4498709;31;34999;-64
2021/07/31 11:00:49;;;;;;;5.45;3.87;;;;;;;29.77;45.56;99046.59;4498284;31;34112;-63
2021/07/31 11:03:31;;;;;;;5.87;4.30;;;;;;;29.78;45.48;99036.41;4498618;31;34631;-63
2021/07/31 11:06:00;;;;;;;8.30;4.20;;;;;;;29.79;45.47;99038.06;4500886;31;34058;-62
2021/07/31 11:08:30;;;;;;;5.73;3.93;;;;;;;29.77;45.46;99041.09;4501101;31;34604;-63
2021/07/31 11:10:57;;;;;;;;;;;;;;;29.77;45.47;99034.78;4501188;31;33358;-63
2021/07/31 11:13:28;;;;;;;5.95;4.00;;;;;;;29.90;45.16;99039.63;4500907;31;34476;-62
2021/07/31 11:15:56;;;;;;;5.75;3.95;;;;;;;29.79;45.34;99038.06;4500926;31;34079;-63
2021/07/31 11:18:44;;;;;;;6.65;3.50;;;;;;;29.77;45.37;99029.28;4500984;31;34521;-63
2021/07/31 11:21:20;;;;;;;5.55;3.87;;;;;;;29.76;45.38;99024.91;4497644;31;33367;-62
2021/07/31 11:24:03;;;;;;;6.28;3.95;;;;;;;29.76;45.30;99025.72;4484963;32;35176;-63
2021/07/31 11:26:43;;;;;;;5.43;3.65;;;;;;;29.77;45.27;99026.53;4485480;31;33812;-63
2021/07/31 11:29:16;;;;;;;5.68;4.00;;;;;;;29.75;45.32;99032.28;4490037;31;34064;-63
2021/07/31 11:31:55;;;;;;;5.10;3.87;;;;;;;29.74;45.33;99030.66;4499980;31;33374;-63
2021/07/31 11:34:23;;;;;;;7.72;3.97;;;;;;;29.73;45.32;99029.84;4499883;31;34798;-63
2021/07/31 11:36:57;;;;;;;6.32;3.72;;;;;;;29.77;45.30;99029.28;4499158;31;34856;-65
2021/07/31 11:39:25;;;;;;;5.53;3.50;;;;;;;29.74;45.35;99025.16;4482225;31;34601;-61
2021/07/31 11:41:57;;;;;;;8.18;3.95;;;;;;;29.74;45.25;99020.47;4498297;31;33308;-64